Pagrindinis puslapis
METAR-TAF:

METAR-TAF

Oro uostai :

Nanning, Kinija

platuma: 22-49N, ilguma: 108-21E, Aukštis: 73 m

Dabartinis oras

Ataskaita buvo paskelbta 22 minutes, ne 13:00 UTC
Vėjas 2 kt nuo kintamojo kryptimis
Temperatūra 21°C
Drėgmė 78%
Slėgis 1016 hPa
Matomumas 10 km arba daugiau
nėra debesų žemiau 1500 m ir nėra kamuolinių lietaus debesų

METAR: ZGNN 251300Z VRB01MPS CAVOK 21/17 Q1016 NOSIG

Laikas: 21:22 (13:22 UTC)

Prognozė

Ataskaita buvo paskelbta 4 valandos ir 14 minutes, ne 09:08 UTC
Prognozė galioja nuo 25 metu 12 UTC su 26 metu 12 UTC
Vėjas 6 kt iš Pietų/Pietryčių
Matomumas: 5000 m
Su prošvaistėmis ne aukštis 4000 ft
rūkana

TAF: ZGNN 250908Z 2512/2612 16003MPS 5000 BR BKN040 TX26/2607Z TN17/2522Z

Orai ataskaitas ir orų prognozės (METAR, TAF).

turimą stotys yra geltonos ir raudonos taškus žemėlapyje.

Perkelti pele per norėdami pamatyti stoties vardą.

Tada spustelėkite, norėdami matyti oro stebėjimo ir prognozės.

Norėdami pakeisti žemėlapį: spustelėkite ant žalios mygtukų su juodo kryžiaus žemyn,; žalią mygtuką su brūkšneliu, jei norite nutolinti; arba žalių rodyklių gretimoms žemėlapius.


METAR-TAF: